createdAt,value
2018-12-14T00:02:16.886Z,87.08
2018-12-14T00:04:49.960Z,87.38
2018-12-14T00:07:22.679Z,87.52
2018-12-14T00:09:55.328Z,87.72
2018-12-14T00:12:29.562Z,87.70
2018-12-14T00:15:05.889Z,87.69
2018-12-14T00:17:39.588Z,87.79
2018-12-14T00:20:12.128Z,87.83
2018-12-14T00:22:46.184Z,87.87
2018-12-14T00:25:18.944Z,87.70
2018-12-14T00:27:51.747Z,87.66
2018-12-14T00:30:24.700Z,87.72
2018-12-14T00:32:57.503Z,87.81
2018-12-14T00:35:30.949Z,87.93
2018-12-14T00:38:05.077Z,88.01
2018-12-14T00:40:38.262Z,88.13
2018-12-14T00:43:11.537Z,88.23
2018-12-14T00:45:46.250Z,88.31
2018-12-14T00:48:22.369Z,88.13
2018-12-14T00:50:54.931Z,87.99
2018-12-14T00:53:30.523Z,88.01
2018-12-14T00:56:05.586Z,88.05
2018-12-14T00:58:38.239Z,88.15
2018-12-14T01:01:11.132Z,88.23
2018-12-14T01:03:44.733Z,88.19
2018-12-14T01:06:17.363Z,88.13
2018-12-14T01:08:50.396Z,88.17
2018-12-14T01:11:22.880Z,88.18
2018-12-14T01:13:55.652Z,88.25
2018-12-14T01:16:28.648Z,88.28
2018-12-14T01:19:01.283Z,88.28
2018-12-14T01:21:34.079Z,88.31
2018-12-14T01:24:07.048Z,88.34
2018-12-14T01:26:40.680Z,88.40
2018-12-14T01:29:13.224Z,88.34
2018-12-14T01:31:46.431Z,88.39
2018-12-14T01:34:19.700Z,88.38
2018-12-14T01:36:53.353Z,88.38
2018-12-14T01:39:26.435Z,88.27
2018-12-14T01:42:04.678Z,88.22
2018-12-14T01:44:38.581Z,88.04
2018-12-14T01:47:14.474Z,87.93
2018-12-14T01:49:49.254Z,87.94
2018-12-14T01:52:22.380Z,87.86
2018-12-14T01:54:56.383Z,87.53
2018-12-14T01:57:29.334Z,87.22
2018-12-14T02:00:04.002Z,86.90
2018-12-14T02:02:38.063Z,86.81
2018-12-14T02:05:11.156Z,86.67
2018-12-14T02:07:43.758Z,86.57
2018-12-14T02:10:16.920Z,86.48
2018-12-14T02:12:51.134Z,86.36
2018-12-14T02:15:23.763Z,86.21
2018-12-14T02:17:56.756Z,86.05
2018-12-14T02:20:29.725Z,85.74
2018-12-14T02:23:02.387Z,84.88
2018-12-14T02:25:35.394Z,84.25
2018-12-14T02:28:08.399Z,84.14
2018-12-14T02:30:44.532Z,83.95
2018-12-14T02:33:17.613Z,84.00
2018-12-14T02:35:50.296Z,83.75
2018-12-14T02:38:22.948Z,83.84
2018-12-14T02:40:55.875Z,83.92
2018-12-14T02:43:28.556Z,83.82
2018-12-14T02:46:01.275Z,83.83
2018-12-14T02:48:34.514Z,83.92
2018-12-14T02:51:07.219Z,83.99
2018-12-14T02:53:39.817Z,84.02
2018-12-14T02:56:12.820Z,84.19
2018-12-14T02:58:48.813Z,84.53
2018-12-14T03:01:21.643Z,84.60
2018-12-14T03:03:55.081Z,84.45
2018-12-14T03:06:29.379Z,84.52
2018-12-14T03:09:02.993Z,84.50
2018-12-14T03:11:36.870Z,84.71
2018-12-14T03:14:09.376Z,84.63
2018-12-14T03:16:42.940Z,84.60
2018-12-14T03:19:17.162Z,84.63
2018-12-14T03:21:49.699Z,84.65
2018-12-14T03:24:22.375Z,84.57
2018-12-14T03:26:56.450Z,84.44
2018-12-14T03:29:29.675Z,84.40
2018-12-14T03:32:02.270Z,84.42
2018-12-14T03:34:36.894Z,84.50
2018-12-14T03:37:10.266Z,84.44
2018-12-14T03:39:43.468Z,84.33
2018-12-14T03:42:16.536Z,84.25
2018-12-14T03:44:49.899Z,84.23
2018-12-14T03:47:22.744Z,84.22
2018-12-14T03:49:56.871Z,84.23
2018-12-14T03:52:29.499Z,84.27
2018-12-14T03:55:02.959Z,84.34
2018-12-14T03:57:35.828Z,84.44
2018-12-14T04:00:09.473Z,84.44
2018-12-14T04:02:42.258Z,84.46
2018-12-14T04:05:17.571Z,84.44
2018-12-14T04:07:51.238Z,84.48
2018-12-14T04:10:24.630Z,84.53
2018-12-14T04:13:00.813Z,84.61
2018-12-14T04:15:33.559Z,84.66
2018-12-14T04:18:06.327Z,84.68
2018-12-14T04:20:40.260Z,84.71
2018-12-14T04:23:12.896Z,84.71
2018-12-14T04:25:45.680Z,84.73
2018-12-14T04:28:18.694Z,84.74
2018-12-14T04:30:51.200Z,84.75
2018-12-14T04:33:24.000Z,84.86
2018-12-14T04:35:57.164Z,84.92
2018-12-14T04:38:30.033Z,85.01
2018-12-14T04:41:02.803Z,85.11
2018-12-14T04:43:35.809Z,85.28
2018-12-14T04:46:09.003Z,85.45
2018-12-14T04:48:41.682Z,85.28
2018-12-14T04:51:17.104Z,85.15
2018-12-14T04:53:49.967Z,84.76
2018-12-14T04:56:22.539Z,84.28
2018-12-14T04:58:55.453Z,84.00
2018-12-14T05:01:28.105Z,83.48
2018-12-14T05:04:00.765Z,82.93
2018-12-14T05:06:33.916Z,81.75
2018-12-14T05:09:10.559Z,81.19
2018-12-14T05:11:43.113Z,80.84
2018-12-14T05:14:16.556Z,80.39
2018-12-14T05:16:49.081Z,80.32
2018-12-14T05:19:21.695Z,80.08
2018-12-14T05:21:54.867Z,79.94
2018-12-14T05:24:29.272Z,79.58
2018-12-14T05:27:02.322Z,79.90
2018-12-14T05:29:35.353Z,80.50
2018-12-14T05:32:08.560Z,81.10
2018-12-14T05:34:41.240Z,81.40
2018-12-14T05:37:14.190Z,81.96
2018-12-14T05:39:47.441Z,82.41
2018-12-14T05:42:20.802Z,82.73
2018-12-14T05:44:53.901Z,83.02
2018-12-14T05:47:26.675Z,83.28
2018-12-14T05:49:59.329Z,83.56
2018-12-14T05:52:32.280Z,83.71
2018-12-14T05:55:05.509Z,83.88
2018-12-14T05:57:38.079Z,84.07
2018-12-14T06:00:15.000Z,84.31
2018-12-14T06:02:50.001Z,84.46
2018-12-14T06:05:26.543Z,84.62
2018-12-14T06:08:00.263Z,84.79
2018-12-14T06:10:33.618Z,84.77
2018-12-14T06:13:09.039Z,84.89
2018-12-14T06:15:43.551Z,84.94
2018-12-14T06:18:16.879Z,85.05
2018-12-14T06:20:50.405Z,85.12
2018-12-14T06:23:23.742Z,85.22
2018-12-14T06:25:56.785Z,85.29
2018-12-14T06:28:30.424Z,85.32
2018-12-14T06:31:03.703Z,85.38
2018-12-14T06:33:36.930Z,85.55
2018-12-14T06:36:09.516Z,85.61
2018-12-14T06:38:45.016Z,85.78
2018-12-14T06:41:18.650Z,85.84
2018-12-14T06:43:53.637Z,85.88
2018-12-14T06:46:26.364Z,85.91
2018-12-14T06:49:02.073Z,85.94
2018-12-14T06:51:37.583Z,86.01
2018-12-14T06:54:10.454Z,86.02
2018-12-14T06:56:44.948Z,86.03
2018-12-14T06:59:20.579Z,86.09
2018-12-14T07:01:57.243Z,86.07
2018-12-14T07:04:31.356Z,86.12
2018-12-14T07:07:04.363Z,86.16
2018-12-14T07:09:36.964Z,86.22
2018-12-14T07:12:11.505Z,86.31
2018-12-14T07:14:44.552Z,86.35
2018-12-14T07:17:17.244Z,86.37
2018-12-14T07:19:50.631Z,86.30
2018-12-14T07:22:24.223Z,86.28
2018-12-14T07:24:57.406Z,86.15
2018-12-14T07:27:30.384Z,85.99
2018-12-14T07:30:07.181Z,85.94
2018-12-14T07:32:40.562Z,85.97
2018-12-14T07:35:13.377Z,86.08
2018-12-14T07:37:47.270Z,86.16
2018-12-14T07:40:20.623Z,86.08
2018-12-14T07:42:55.804Z,85.96
2018-12-14T07:45:31.496Z,85.84
2018-12-14T07:48:05.329Z,85.80
2018-12-14T07:50:39.330Z,85.71
2018-12-14T07:53:12.143Z,85.68
2018-12-14T07:55:44.877Z,85.67
2018-12-14T07:58:18.644Z,85.67
2018-12-14T08:00:52.572Z,85.66
2018-12-14T08:03:27.416Z,85.63
2018-12-14T08:06:00.356Z,85.48
2018-12-14T08:08:34.080Z,85.53
2018-12-14T08:11:09.599Z,85.44
2018-12-14T08:13:44.084Z,85.51
2018-12-14T08:16:18.054Z,85.43
2018-12-14T08:18:50.834Z,85.40
2018-12-14T08:21:23.962Z,85.29
2018-12-14T08:23:58.582Z,85.38
2018-12-14T08:26:31.422Z,85.43
2018-12-14T08:29:04.632Z,85.33
2018-12-14T08:31:37.341Z,85.22
2018-12-14T08:34:11.776Z,85.07
2018-12-14T08:36:44.915Z,84.84
2018-12-14T08:39:18.516Z,84.71
2018-12-14T08:41:51.121Z,84.51
2018-12-14T08:44:23.969Z,84.35
2018-12-14T08:46:58.879Z,84.15
2018-12-14T08:49:32.111Z,84.11
2018-12-14T08:52:06.206Z,84.09
2018-12-14T08:54:39.989Z,84.03
2018-12-14T08:57:12.721Z,83.94
2018-12-14T08:59:45.531Z,83.81
2018-12-14T09:02:18.527Z,83.71
2018-12-14T09:04:51.341Z,83.70
2018-12-14T09:07:25.264Z,83.66
2018-12-14T09:10:00.415Z,83.49
2018-12-14T09:12:33.360Z,83.33
2018-12-14T09:15:07.019Z,83.34
2018-12-14T09:17:39.989Z,83.39
2018-12-14T09:20:12.723Z,83.31
2018-12-14T09:22:46.436Z,83.33
2018-12-14T09:25:22.521Z,83.35
2018-12-14T09:27:58.906Z,83.31
2018-12-14T09:30:33.981Z,83.41
2018-12-14T09:33:08.301Z,83.52
2018-12-14T09:35:42.205Z,83.46
2018-12-14T09:38:16.094Z,83.34
2018-12-14T09:40:54.584Z,83.23
2018-12-14T09:43:28.918Z,83.12
2018-12-14T09:46:02.358Z,83.07
2018-12-14T09:48:35.680Z,82.92
2018-12-14T09:51:12.665Z,82.82
2018-12-14T09:53:47.783Z,82.70
2018-12-14T09:56:22.065Z,82.52
2018-12-14T09:58:54.654Z,82.45
2018-12-14T10:01:30.367Z,82.22
2018-12-14T10:04:04.409Z,81.98
2018-12-14T10:06:37.640Z,81.91
2018-12-14T10:09:11.171Z,81.89
2018-12-14T10:11:44.829Z,81.77
2018-12-14T10:14:21.504Z,81.62
2018-12-14T10:16:56.864Z,81.47
2018-12-14T10:19:29.505Z,81.20
2018-12-14T10:22:02.560Z,80.87
2018-12-14T10:24:35.672Z,80.78
2018-12-14T10:27:09.260Z,80.75
2018-12-14T10:29:44.184Z,80.50
2018-12-14T10:32:18.074Z,80.13
2018-12-14T10:34:54.479Z,79.90
2018-12-14T10:37:28.607Z,79.58
2018-12-14T10:40:02.842Z,79.32
2018-12-14T10:42:36.200Z,78.99
2018-12-14T10:45:18.829Z,78.50
2018-12-14T10:47:58.579Z,77.44
2018-12-14T10:50:39.217Z,77.42
2018-12-14T10:53:13.850Z,76.74
2018-12-14T10:55:46.357Z,76.12
2018-12-14T10:58:20.777Z,75.53
2018-12-14T11:00:59.425Z,74.86
2018-12-14T11:03:34.245Z,73.96
2018-12-14T11:06:07.531Z,73.11
2018-12-14T11:08:41.290Z,72.48
2018-12-14T11:11:15.281Z,72.43
2018-12-14T11:13:51.705Z,71.57
2018-12-14T11:16:24.352Z,71.31
2018-12-14T11:18:57.347Z,70.74
2018-12-14T11:21:30.002Z,70.00
2018-12-14T11:24:04.560Z,68.89
2018-12-14T11:26:37.585Z,69.17
2018-12-14T11:29:14.986Z,68.53
2018-12-14T11:31:47.843Z,67.14
2018-12-14T11:34:29.551Z,66.49
2018-12-14T11:37:04.928Z,66.66
2018-12-14T11:39:41.640Z,65.71
2018-12-14T11:42:15.164Z,65.09
2018-12-14T11:44:48.468Z,65.94
2018-12-14T11:47:28.170Z,65.00
2018-12-14T11:50:01.776Z,63.91
2018-12-14T11:52:35.316Z,64.60
2018-12-14T11:55:33.872Z,63.07
2018-12-14T11:58:12.852Z,63.00
2018-12-14T12:00:45.780Z,62.64
2018-12-14T12:03:20.732Z,63.27
2018-12-14T12:05:54.870Z,61.89
2018-12-14T12:08:30.078Z,62.07
2018-12-14T12:11:04.660Z,62.13
2018-12-14T12:13:38.309Z,62.26
2018-12-14T12:16:11.709Z,61.83
2018-12-14T12:18:46.319Z,59.93
2018-12-14T12:21:23.548Z,60.29
2018-12-14T12:23:58.308Z,59.84
2018-12-14T12:26:33.923Z,59.11
2018-12-14T12:29:09.505Z,58.86
2018-12-14T12:31:46.016Z,58.54
2018-12-14T12:34:23.414Z,58.49
2018-12-14T12:36:57.232Z,58.52
2018-12-14T12:39:32.321Z,59.13
2018-12-14T12:42:08.668Z,58.67
2018-12-14T12:44:46.634Z,58.96
2018-12-14T12:47:21.818Z,58.79
2018-12-14T12:49:58.579Z,58.65
2018-12-14T12:52:32.443Z,58.85
2018-12-14T12:55:05.724Z,57.66
2018-12-14T12:57:39.485Z,58.15
2018-12-14T13:00:14.188Z,58.10
2018-12-14T13:02:47.736Z,58.13
2018-12-14T13:05:20.703Z,58.51
2018-12-14T13:07:54.404Z,58.63
2018-12-14T13:10:28.098Z,58.57
2018-12-14T13:13:02.896Z,57.92
2018-12-14T13:15:37.081Z,57.79
2018-12-14T13:18:15.620Z,57.66
2018-12-14T13:20:49.452Z,56.85
2018-12-14T13:23:30.209Z,57.01
2018-12-14T13:26:03.803Z,57.13
2018-12-14T13:28:37.429Z,56.61
2018-12-14T13:31:10.132Z,57.12
2018-12-14T13:33:43.556Z,57.60
2018-12-14T13:36:18.688Z,57.36
2018-12-14T13:38:52.261Z,56.64
2018-12-14T13:41:24.952Z,56.96
2018-12-14T13:43:59.729Z,56.93
2018-12-14T13:46:33.981Z,57.17
2018-12-14T13:49:06.865Z,57.18
2018-12-14T13:51:40.659Z,57.12
2018-12-14T13:54:15.842Z,57.15
2018-12-14T13:56:49.464Z,57.30
2018-12-14T13:59:22.704Z,57.37
2018-12-14T14:01:57.981Z,57.52
2018-12-14T14:04:35.857Z,57.28
2018-12-14T14:07:10.096Z,57.18
2018-12-14T14:09:44.527Z,57.32
2018-12-14T14:12:19.644Z,56.76
2018-12-14T14:14:54.227Z,56.75
2018-12-14T14:17:31.303Z,56.33
2018-12-14T14:20:09.607Z,56.21
2018-12-14T14:23:00.299Z,54.67
2018-12-14T14:25:36.001Z,55.38
2018-12-14T14:28:10.783Z,55.50
2018-12-14T14:30:45.255Z,55.88
2018-12-14T14:33:19.137Z,56.27
2018-12-14T14:35:51.915Z,56.25
2018-12-14T14:38:26.344Z,56.32
2018-12-14T14:41:01.730Z,56.03
2018-12-14T14:43:39.083Z,56.25
2018-12-14T14:46:13.970Z,56.75
2018-12-14T14:48:51.935Z,56.99
2018-12-14T14:51:28.810Z,56.72
2018-12-14T14:54:05.509Z,57.00
2018-12-14T14:56:43.107Z,56.93
2018-12-14T14:59:17.517Z,57.17
2018-12-14T15:01:59.513Z,57.29
2018-12-14T15:04:33.799Z,57.33
2018-12-14T15:07:10.703Z,57.53
2018-12-14T15:09:45.781Z,57.73
2018-12-14T15:12:24.845Z,58.00
2018-12-14T15:14:58.540Z,58.19
2018-12-14T15:17:33.261Z,58.16
2018-12-14T15:20:08.424Z,57.97
2018-12-14T15:22:44.000Z,58.58
2018-12-14T15:25:18.616Z,58.77
2018-12-14T15:27:53.721Z,59.04
2018-12-14T15:30:26.695Z,59.16
2018-12-14T15:32:59.819Z,59.21
2018-12-14T15:35:33.570Z,59.44
2018-12-14T15:38:08.575Z,59.29
2018-12-14T15:40:43.937Z,59.32
2018-12-14T15:43:17.547Z,59.49
2018-12-14T15:45:51.073Z,59.62
2018-12-14T15:48:24.734Z,59.64
2018-12-14T15:51:01.147Z,59.63
2018-12-14T15:53:34.706Z,59.83
2018-12-14T15:56:12.411Z,59.74
2018-12-14T15:58:51.822Z,59.87
2018-12-14T16:01:27.208Z,59.73
2018-12-14T16:04:00.140Z,59.78
2018-12-14T16:06:34.971Z,59.82
2018-12-14T16:09:09.024Z,59.81
2018-12-14T16:11:45.352Z,59.65
2018-12-14T16:14:20.446Z,59.53
2018-12-14T16:16:54.324Z,59.28
2018-12-14T16:19:27.082Z,59.55
2018-12-14T16:22:05.645Z,59.76
2018-12-14T16:24:38.396Z,61.12
2018-12-14T16:27:12.495Z,63.63
2018-12-14T16:29:46.223Z,64.14
2018-12-14T16:32:20.801Z,65.09
2018-12-14T16:35:05.737Z,66.66
2018-12-14T16:37:43.092Z,66.97
2018-12-14T16:40:18.387Z,67.73
2018-12-14T16:42:52.781Z,68.27
2018-12-14T16:45:28.228Z,69.07
2018-12-14T16:48:01.277Z,69.29
2018-12-14T16:50:36.579Z,69.29
2018-12-14T16:53:10.384Z,69.44
2018-12-14T16:55:43.886Z,69.51
2018-12-14T16:58:18.912Z,69.65
2018-12-14T17:00:55.054Z,69.71
2018-12-14T17:03:32.617Z,70.39
2018-12-14T17:06:09.532Z,70.49
2018-12-14T17:08:45.147Z,70.50
2018-12-14T17:11:20.004Z,70.58
2018-12-14T17:13:56.372Z,70.85
2018-12-14T17:16:30.289Z,71.03
2018-12-14T17:19:04.818Z,71.03
2018-12-14T17:21:43.746Z,71.11
2018-12-14T17:24:20.894Z,71.27
2018-12-14T17:26:57.034Z,71.54
2018-12-14T17:29:31.271Z,71.94
2018-12-14T17:32:04.738Z,72.17
2018-12-14T17:34:40.460Z,72.81
2018-12-14T17:37:13.256Z,72.85
2018-12-14T17:39:48.460Z,72.92
2018-12-14T17:42:21.029Z,72.98
2018-12-14T17:44:54.944Z,73.25
2018-12-14T17:47:28.056Z,73.50
2018-12-14T17:50:01.947Z,73.51
2018-12-14T17:52:39.035Z,73.52
2018-12-14T17:55:14.655Z,73.57
2018-12-14T17:57:48.560Z,73.33
2018-12-14T18:00:22.835Z,73.22
2018-12-14T18:02:57.732Z,73.07
2018-12-14T18:05:33.471Z,72.05
2018-12-14T18:08:08.123Z,71.54
2018-12-14T18:10:41.461Z,70.97
2018-12-14T18:13:15.977Z,70.33
2018-12-14T18:15:49.314Z,69.07
2018-12-14T18:18:24.496Z,68.70
2018-12-14T18:21:07.773Z,68.31
2018-12-14T18:23:42.559Z,67.16
2018-12-14T18:26:16.190Z,66.01
2018-12-14T18:28:50.729Z,66.08
2018-12-14T18:31:27.363Z,65.85
2018-12-14T18:34:01.694Z,65.25
2018-12-14T18:36:35.888Z,64.86
2018-12-14T18:39:10.782Z,65.11
2018-12-14T18:41:49.392Z,64.91
2018-12-14T18:44:23.254Z,65.13
2018-12-14T18:46:58.013Z,65.02
2018-12-14T18:49:32.128Z,64.84
2018-12-14T18:52:04.847Z,64.51
2018-12-14T18:54:47.692Z,64.48
2018-12-14T18:57:20.653Z,64.09
2018-12-14T18:59:58.604Z,63.71
2018-12-14T19:02:40.453Z,63.38
2018-12-14T19:05:14.973Z,63.06
2018-12-14T19:07:52.002Z,63.00
2018-12-14T19:10:26.532Z,62.99
2018-12-14T19:13:10.332Z,62.99
2018-12-14T19:15:45.390Z,62.13
2018-12-14T19:18:21.833Z,61.91
2018-12-14T19:20:55.089Z,61.83
2018-12-14T19:23:31.655Z,61.83
2018-12-14T19:26:06.108Z,61.87
2018-12-14T19:28:41.398Z,61.67
2018-12-14T19:31:19.043Z,61.68
2018-12-14T19:33:54.887Z,61.61
2018-12-14T19:36:29.784Z,61.58
2018-12-14T19:39:09.473Z,61.39
2018-12-14T19:41:43.840Z,61.41
2018-12-14T19:44:19.216Z,61.96
2018-12-14T19:46:54.515Z,61.85
2018-12-14T19:49:31.074Z,61.87
2018-12-14T19:52:10.674Z,61.74
2018-12-14T19:54:51.495Z,61.56
2018-12-14T19:57:25.213Z,61.50
2018-12-14T20:00:00.986Z,61.61
2018-12-14T20:02:49.709Z,61.64
2018-12-14T20:05:22.713Z,61.41
2018-12-14T20:07:56.820Z,61.54
2018-12-14T20:10:32.714Z,61.74
2018-12-14T20:13:09.286Z,61.91
2018-12-14T20:15:42.811Z,61.99
2018-12-14T20:18:17.189Z,62.14
2018-12-14T20:20:50.433Z,62.01
2018-12-14T20:23:26.905Z,61.92
2018-12-14T20:26:16.200Z,61.60
2018-12-14T20:28:59.700Z,61.56
2018-12-14T20:31:34.467Z,61.57
2018-12-14T20:34:10.432Z,61.57
2018-12-14T20:36:47.603Z,61.71
2018-12-14T20:39:25.290Z,61.88
2018-12-14T20:42:00.190Z,61.94
2018-12-14T20:44:34.546Z,61.96
2018-12-14T20:47:15.271Z,61.94
2018-12-14T20:49:47.927Z,62.06
2018-12-14T20:52:23.863Z,61.92
2018-12-14T20:55:00.836Z,61.41
2018-12-14T20:57:35.653Z,61.00
2018-12-14T21:00:16.579Z,60.97
2018-12-14T21:02:54.641Z,60.99
2018-12-14T21:05:30.726Z,60.93
2018-12-14T21:08:03.548Z,60.81
2018-12-14T21:10:36.096Z,61.00
2018-12-14T21:13:11.599Z,60.90
2018-12-14T21:15:48.930Z,60.99
2018-12-14T21:18:23.501Z,61.03
2018-12-14T21:20:58.717Z,61.00
2018-12-14T21:23:32.014Z,60.83
2018-12-14T21:26:05.591Z,60.82
2018-12-14T21:28:40.386Z,60.84
2018-12-14T21:31:14.662Z,61.00
2018-12-14T21:33:49.431Z,60.95
2018-12-14T21:36:22.493Z,60.79
2018-12-14T21:38:55.236Z,60.99
2018-12-14T21:41:31.764Z,60.98
2018-12-14T21:44:09.867Z,61.07
2018-12-14T21:46:46.174Z,61.11
2018-12-14T21:49:20.684Z,61.25
2018-12-14T21:51:56.578Z,61.17
2018-12-14T21:54:32.212Z,61.01
2018-12-14T21:57:16.036Z,61.06
2018-12-14T21:59:51.589Z,61.29
2018-12-14T22:02:25.385Z,61.39
2018-12-14T22:04:59.639Z,61.40
2018-12-14T22:07:33.988Z,61.04
2018-12-14T22:10:10.637Z,61.03
2018-12-14T22:12:46.805Z,61.09
2018-12-14T22:15:25.247Z,60.82
2018-12-14T22:17:59.935Z,60.85
2018-12-14T22:20:41.495Z,60.84
2018-12-14T22:23:16.491Z,60.66
2018-12-14T22:25:49.949Z,60.63
2018-12-14T22:28:25.202Z,60.48
2018-12-14T22:30:59.644Z,60.32
2018-12-14T22:33:33.067Z,60.08
2018-12-14T22:36:07.103Z,59.57
2018-12-14T22:38:46.819Z,59.63
2018-12-14T22:41:20.476Z,59.82
2018-12-14T22:43:53.613Z,59.67
2018-12-14T22:46:26.644Z,59.76
2018-12-14T22:48:59.892Z,59.97
2018-12-14T22:51:37.159Z,59.90
2018-12-14T22:54:13.623Z,60.13
2018-12-14T22:56:50.946Z,60.32
2018-12-14T22:59:24.773Z,60.43
2018-12-14T23:02:00.137Z,60.54
2018-12-14T23:04:35.857Z,60.53
2018-12-14T23:07:17.210Z,60.55
2018-12-14T23:09:50.480Z,60.22
2018-12-14T23:12:26.978Z,60.18
2018-12-14T23:15:04.270Z,60.05
2018-12-14T23:17:36.985Z,59.86
2018-12-14T23:20:09.968Z,59.73
2018-12-14T23:22:43.487Z,59.62
2018-12-14T23:25:16.222Z,59.69
2018-12-14T23:27:53.537Z,59.75
2018-12-14T23:30:26.333Z,59.90
2018-12-14T23:33:00.103Z,59.72
2018-12-14T23:35:33.079Z,59.82
2018-12-14T23:38:06.716Z,59.90
2018-12-14T23:40:44.038Z,59.88
2018-12-14T23:43:32.892Z,59.94
2018-12-14T23:46:05.912Z,60.08
2018-12-14T23:48:39.913Z,60.24
2018-12-14T23:51:13.918Z,60.43
2018-12-14T23:53:47.309Z,60.56
2018-12-14T23:56:21.549Z,60.66
2018-12-14T23:58:54.938Z,60.78
